sensor_id;sensor_type;location;lat;lon;timestamp;temperature;humidity
32394;DHT22;18853;45.426;9.206;2024-03-17T00:01:38;20.50;49.70
32394;DHT22;18853;45.426;9.206;2024-03-17T00:04:04;20.40;49.80
32394;DHT22;18853;45.426;9.206;2024-03-17T00:06:31;20.40;49.80
32394;DHT22;18853;45.426;9.206;2024-03-17T00:08:56;20.40;49.90
32394;DHT22;18853;45.426;9.206;2024-03-17T00:11:23;20.30;50.10
32394;DHT22;18853;45.426;9.206;2024-03-17T00:13:48;20.40;50.30
32394;DHT22;18853;45.426;9.206;2024-03-17T00:16:14;20.40;50.60
32394;DHT22;18853;45.426;9.206;2024-03-17T00:18:44;20.40;50.20
32394;DHT22;18853;45.426;9.206;2024-03-17T00:21:10;20.50;50.20
32394;DHT22;18853;45.426;9.206;2024-03-17T00:23:35;20.40;50.20
32394;DHT22;18853;45.426;9.206;2024-03-17T00:26:02;20.40;50.40
32394;DHT22;18853;45.426;9.206;2024-03-17T00:28:27;20.30;50.40
32394;DHT22;18853;45.426;9.206;2024-03-17T00:30:53;20.30;50.50
32394;DHT22;18853;45.426;9.206;2024-03-17T00:33:19;20.20;50.60
32394;DHT22;18853;45.426;9.206;2024-03-17T00:35:45;20.20;50.60
32394;DHT22;18853;45.426;9.206;2024-03-17T00:38:10;20.10;50.70
32394;DHT22;18853;45.426;9.206;2024-03-17T00:40:39;20.10;50.80
32394;DHT22;18853;45.426;9.206;2024-03-17T00:43:07;20.10;50.80
32394;DHT22;18853;45.426;9.206;2024-03-17T00:45:33;20.10;51.00
32394;DHT22;18853;45.426;9.206;2024-03-17T00:47:58;20.10;51.10
32394;DHT22;18853;45.426;9.206;2024-03-17T00:50:24;20.10;51.30
32394;DHT22;18853;45.426;9.206;2024-03-17T00:52:50;20.00;51.30
32394;DHT22;18853;45.426;9.206;2024-03-17T00:55:15;19.90;51.50
32394;DHT22;18853;45.426;9.206;2024-03-17T00:57:41;20.00;51.50
32394;DHT22;18853;45.426;9.206;2024-03-17T01:00:07;20.00;51.50
32394;DHT22;18853;45.426;9.206;2024-03-17T01:02:37;20.00;51.50
32394;DHT22;18853;45.426;9.206;2024-03-17T01:05:03;20.00;51.60
32394;DHT22;18853;45.426;9.206;2024-03-17T01:07:31;19.90;51.70
32394;DHT22;18853;45.426;9.206;2024-03-17T01:09:57;19.90;51.80
32394;DHT22;18853;45.426;9.206;2024-03-17T01:12:22;19.90;51.80
32394;DHT22;18853;45.426;9.206;2024-03-17T01:14:48;19.90;51.80
32394;DHT22;18853;45.426;9.206;2024-03-17T01:17:13;19.90;51.90
32394;DHT22;18853;45.426;9.206;2024-03-17T01:19:39;19.90;51.90
32394;DHT22;18853;45.426;9.206;2024-03-17T01:22:05;19.80;51.90
32394;DHT22;18853;45.426;9.206;2024-03-17T01:24:31;19.80;52.10
32394;DHT22;18853;45.426;9.206;2024-03-17T01:26:59;19.80;52.00
32394;DHT22;18853;45.426;9.206;2024-03-17T01:29:26;19.80;52.10
32394;DHT22;18853;45.426;9.206;2024-03-17T01:31:52;19.80;52.00
32394;DHT22;18853;45.426;9.206;2024-03-17T01:34:19;19.70;52.00
32394;DHT22;18853;45.426;9.206;2024-03-17T01:36:44;19.70;52.10
32394;DHT22;18853;45.426;9.206;2024-03-17T01:39:10;19.70;52.20
32394;DHT22;18853;45.426;9.206;2024-03-17T01:41:37;19.70;52.20
32394;DHT22;18853;45.426;9.206;2024-03-17T01:44:03;19.70;52.30
32394;DHT22;18853;45.426;9.206;2024-03-17T01:46:28;19.60;52.40
32394;DHT22;18853;45.426;9.206;2024-03-17T01:48:54;19.60;52.40
32394;DHT22;18853;45.426;9.206;2024-03-17T01:51:21;19.60;52.30
32394;DHT22;18853;45.426;9.206;2024-03-17T01:53:48;19.60;52.40
32394;DHT22;18853;45.426;9.206;2024-03-17T01:56:14;19.60;52.40
32394;DHT22;18853;45.426;9.206;2024-03-17T01:58:44;19.60;52.40
32394;DHT22;18853;45.426;9.206;2024-03-17T02:01:10;19.60;52.40
32394;DHT22;18853;45.426;9.206;2024-03-17T02:03:36;19.50;52.50
32394;DHT22;18853;45.426;9.206;2024-03-17T02:06:01;19.50;52.60
32394;DHT22;18853;45.426;9.206;2024-03-17T02:08:27;19.50;52.60
32394;DHT22;18853;45.426;9.206;2024-03-17T02:10:53;19.40;52.60
32394;DHT22;18853;45.426;9.206;2024-03-17T02:13:20;19.40;52.60
32394;DHT22;18853;45.426;9.206;2024-03-17T02:15:46;19.40;52.60
32394;DHT22;18853;45.426;9.206;2024-03-17T02:18:12;19.40;52.60
32394;DHT22;18853;45.426;9.206;2024-03-17T02:20:39;19.40;52.60
32394;DHT22;18853;45.426;9.206;2024-03-17T02:23:26;19.40;52.60
32394;DHT22;18853;45.426;9.206;2024-03-17T02:25:52;19.30;52.70
32394;DHT22;18853;45.426;9.206;2024-03-17T02:28:18;19.30;52.90
32394;DHT22;18853;45.426;9.206;2024-03-17T02:30:44;19.30;52.90
32394;DHT22;18853;45.426;9.206;2024-03-17T02:33:10;19.30;52.80
32394;DHT22;18853;45.426;9.206;2024-03-17T02:35:35;19.30;53.40
32394;DHT22;18853;45.426;9.206;2024-03-17T02:38:01;19.30;52.90
32394;DHT22;18853;45.426;9.206;2024-03-17T02:40:28;19.20;52.90
32394;DHT22;18853;45.426;9.206;2024-03-17T02:42:54;19.20;53.00
32394;DHT22;18853;45.426;9.206;2024-03-17T02:45:20;19.20;52.90
32394;DHT22;18853;45.426;9.206;2024-03-17T02:47:46;19.20;52.90
32394;DHT22;18853;45.426;9.206;2024-03-17T02:50:12;19.20;52.90
32394;DHT22;18853;45.426;9.206;2024-03-17T02:52:37;19.20;53.00
32394;DHT22;18853;45.426;9.206;2024-03-17T02:55:03;19.20;53.10
32394;DHT22;18853;45.426;9.206;2024-03-17T02:57:30;19.20;53.10
32394;DHT22;18853;45.426;9.206;2024-03-17T02:59:56;19.20;53.00
32394;DHT22;18853;45.426;9.206;2024-03-17T03:02:22;19.10;52.90
32394;DHT22;18853;45.426;9.206;2024-03-17T03:04:48;19.20;53.10
32394;DHT22;18853;45.426;9.206;2024-03-17T03:07:13;19.10;53.00
32394;DHT22;18853;45.426;9.206;2024-03-17T03:09:39;19.10;53.10
32394;DHT22;18853;45.426;9.206;2024-03-17T03:12:05;19.10;53.10
32394;DHT22;18853;45.426;9.206;2024-03-17T03:14:33;19.10;53.00
32394;DHT22;18853;45.426;9.206;2024-03-17T03:16:58;19.10;53.10
32394;DHT22;18853;45.426;9.206;2024-03-17T03:19:25;19.10;53.00
32394;DHT22;18853;45.426;9.206;2024-03-17T03:21:50;19.10;53.00
32394;DHT22;18853;45.426;9.206;2024-03-17T03:24:16;19.10;53.00
32394;DHT22;18853;45.426;9.206;2024-03-17T03:26:42;19.10;52.90
32394;DHT22;18853;45.426;9.206;2024-03-17T03:29:12;19.10;52.90
32394;DHT22;18853;45.426;9.206;2024-03-17T03:31:40;19.10;52.90
32394;DHT22;18853;45.426;9.206;2024-03-17T03:34:06;19.10;52.80
32394;DHT22;18853;45.426;9.206;2024-03-17T03:36:33;19.10;52.80
32394;DHT22;18853;45.426;9.206;2024-03-17T03:38:59;19.10;52.70
32394;DHT22;18853;45.426;9.206;2024-03-17T03:41:25;19.10;52.80
32394;DHT22;18853;45.426;9.206;2024-03-17T03:43:50;19.00;52.80
32394;DHT22;18853;45.426;9.206;2024-03-17T03:46:16;19.00;52.80
32394;DHT22;18853;45.426;9.206;2024-03-17T03:48:42;19.00;52.80
32394;DHT22;18853;45.426;9.206;2024-03-17T03:51:08;18.90;53.00
32394;DHT22;18853;45.426;9.206;2024-03-17T03:53:36;18.90;53.10
32394;DHT22;18853;45.426;9.206;2024-03-17T03:56:06;18.80;53.20
32394;DHT22;18853;45.426;9.206;2024-03-17T03:58:36;18.90;53.40
32394;DHT22;18853;45.426;9.206;2024-03-17T04:01:08;18.80;53.90
32394;DHT22;18853;45.426;9.206;2024-03-17T04:03:34;18.80;53.30
32394;DHT22;18853;45.426;9.206;2024-03-17T04:06:08;18.80;53.30
32394;DHT22;18853;45.426;9.206;2024-03-17T04:08:34;18.80;54.00
32394;DHT22;18853;45.426;9.206;2024-03-17T04:11:01;18.80;53.50
32394;DHT22;18853;45.426;9.206;2024-03-17T04:13:27;18.70;53.50
32394;DHT22;18853;45.426;9.206;2024-03-17T04:15:55;18.70;53.50
32394;DHT22;18853;45.426;9.206;2024-03-17T04:18:23;18.70;53.50
32394;DHT22;18853;45.426;9.206;2024-03-17T04:20:53;18.70;53.50
32394;DHT22;18853;45.426;9.206;2024-03-17T04:23:21;18.70;53.40
32394;DHT22;18853;45.426;9.206;2024-03-17T04:25:48;18.70;53.40
32394;DHT22;18853;45.426;9.206;2024-03-17T04:28:15;18.80;53.40
32394;DHT22;18853;45.426;9.206;2024-03-17T04:30:40;18.70;53.40
32394;DHT22;18853;45.426;9.206;2024-03-17T04:33:08;18.70;53.50
32394;DHT22;18853;45.426;9.206;2024-03-17T04:35:38;18.70;53.60
32394;DHT22;18853;45.426;9.206;2024-03-17T04:38:04;18.70;53.70
32394;DHT22;18853;45.426;9.206;2024-03-17T04:40:33;18.60;53.60
32394;DHT22;18853;45.426;9.206;2024-03-17T04:43:00;18.70;53.70
32394;DHT22;18853;45.426;9.206;2024-03-17T04:45:25;18.60;53.70
32394;DHT22;18853;45.426;9.206;2024-03-17T04:47:51;18.60;53.70
32394;DHT22;18853;45.426;9.206;2024-03-17T04:50:17;18.60;53.70
32394;DHT22;18853;45.426;9.206;2024-03-17T04:52:43;18.60;53.70
32394;DHT22;18853;45.426;9.206;2024-03-17T04:55:08;18.60;53.80
32394;DHT22;18853;45.426;9.206;2024-03-17T04:57:34;18.60;53.80
32394;DHT22;18853;45.426;9.206;2024-03-17T04:59:59;18.50;53.80
32394;DHT22;18853;45.426;9.206;2024-03-17T05:02:25;18.50;53.80
32394;DHT22;18853;45.426;9.206;2024-03-17T05:04:51;18.50;53.90
32394;DHT22;18853;45.426;9.206;2024-03-17T05:07:16;18.50;53.90
32394;DHT22;18853;45.426;9.206;2024-03-17T05:09:42;18.50;53.90
32394;DHT22;18853;45.426;9.206;2024-03-17T05:12:09;18.40;54.00
32394;DHT22;18853;45.426;9.206;2024-03-17T05:14:35;18.50;54.00
32394;DHT22;18853;45.426;9.206;2024-03-17T05:17:01;18.50;54.00
32394;DHT22;18853;45.426;9.206;2024-03-17T05:19:27;18.50;54.00
32394;DHT22;18853;45.426;9.206;2024-03-17T05:21:52;18.50;53.90
32394;DHT22;18853;45.426;9.206;2024-03-17T05:24:18;18.50;53.90
32394;DHT22;18853;45.426;9.206;2024-03-17T05:26:44;18.40;54.00
32394;DHT22;18853;45.426;9.206;2024-03-17T05:29:11;18.40;54.10
32394;DHT22;18853;45.426;9.206;2024-03-17T05:31:36;18.40;54.20
32394;DHT22;18853;45.426;9.206;2024-03-17T05:34:05;18.30;54.30
32394;DHT22;18853;45.426;9.206;2024-03-17T05:36:31;18.30;54.30
32394;DHT22;18853;45.426;9.206;2024-03-17T05:38:59;18.30;54.40
32394;DHT22;18853;45.426;9.206;2024-03-17T05:41:25;18.30;54.40
32394;DHT22;18853;45.426;9.206;2024-03-17T05:43:51;18.30;54.40
32394;DHT22;18853;45.426;9.206;2024-03-17T05:46:17;18.30;54.30
32394;DHT22;18853;45.426;9.206;2024-03-17T05:48:43;18.30;54.10
32394;DHT22;18853;45.426;9.206;2024-03-17T05:51:10;18.30;54.00
32394;DHT22;18853;45.426;9.206;2024-03-17T05:53:37;18.20;53.90
32394;DHT22;18853;45.426;9.206;2024-03-17T05:56:05;18.20;53.90
32394;DHT22;18853;45.426;9.206;2024-03-17T05:58:33;18.20;54.00
32394;DHT22;18853;45.426;9.206;2024-03-17T06:01:02;18.20;54.10
32394;DHT22;18853;45.426;9.206;2024-03-17T06:03:27;18.20;54.10
32394;DHT22;18853;45.426;9.206;2024-03-17T06:05:53;18.20;54.10
32394;DHT22;18853;45.426;9.206;2024-03-17T06:08:19;18.30;54.00
32394;DHT22;18853;45.426;9.206;2024-03-17T06:10:46;18.30;54.00
32394;DHT22;18853;45.426;9.206;2024-03-17T06:13:13;18.40;53.90
32394;DHT22;18853;45.426;9.206;2024-03-17T06:15:40;18.40;53.90
32394;DHT22;18853;45.426;9.206;2024-03-17T06:18:06;18.30;54.00
32394;DHT22;18853;45.426;9.206;2024-03-17T06:20:40;18.40;54.10
32394;DHT22;18853;45.426;9.206;2024-03-17T06:23:07;18.40;54.20
32394;DHT22;18853;45.426;9.206;2024-03-17T06:28:07;18.40;54.40
32394;DHT22;18853;45.426;9.206;2024-03-17T06:30:33;18.40;54.30
32394;DHT22;18853;45.426;9.206;2024-03-17T06:33:00;18.30;54.30
32394;DHT22;18853;45.426;9.206;2024-03-17T06:35:27;18.30;54.40
32394;DHT22;18853;45.426;9.206;2024-03-17T06:37:52;18.30;54.50
32394;DHT22;18853;45.426;9.206;2024-03-17T06:40:18;18.20;54.60
32394;DHT22;18853;45.426;9.206;2024-03-17T06:42:44;18.20;54.70
32394;DHT22;18853;45.426;9.206;2024-03-17T06:45:09;18.30;54.80
32394;DHT22;18853;45.426;9.206;2024-03-17T06:47:39;18.20;54.80
32394;DHT22;18853;45.426;9.206;2024-03-17T06:50:06;18.20;54.80
32394;DHT22;18853;45.426;9.206;2024-03-17T06:52:35;18.20;54.90
32394;DHT22;18853;45.426;9.206;2024-03-17T06:55:01;18.20;55.10
32394;DHT22;18853;45.426;9.206;2024-03-17T06:57:26;18.20;55.20
32394;DHT22;18853;45.426;9.206;2024-03-17T06:59:52;18.20;55.10
32394;DHT22;18853;45.426;9.206;2024-03-17T07:02:17;18.30;55.20
32394;DHT22;18853;45.426;9.206;2024-03-17T07:04:45;18.30;55.10
32394;DHT22;18853;45.426;9.206;2024-03-17T07:07:12;18.30;55.00
32394;DHT22;18853;45.426;9.206;2024-03-17T07:09:38;18.30;55.00
32394;DHT22;18853;45.426;9.206;2024-03-17T07:12:06;18.40;55.00
32394;DHT22;18853;45.426;9.206;2024-03-17T07:14:32;18.40;55.00
32394;DHT22;18853;45.426;9.206;2024-03-17T07:16:57;18.40;55.00
32394;DHT22;18853;45.426;9.206;2024-03-17T07:19:23;18.40;54.90
32394;DHT22;18853;45.426;9.206;2024-03-17T07:21:48;18.50;55.00
32394;DHT22;18853;45.426;9.206;2024-03-17T07:24:14;18.50;54.80
32394;DHT22;18853;45.426;9.206;2024-03-17T07:26:39;18.50;54.80
32394;DHT22;18853;45.426;9.206;2024-03-17T07:29:05;18.60;54.70
32394;DHT22;18853;45.426;9.206;2024-03-17T07:31:31;18.60;54.70
32394;DHT22;18853;45.426;9.206;2024-03-17T07:33:57;18.60;54.70
32394;DHT22;18853;45.426;9.206;2024-03-17T07:36:23;18.70;54.90
32394;DHT22;18853;45.426;9.206;2024-03-17T07:38:49;18.70;54.60
32394;DHT22;18853;45.426;9.206;2024-03-17T07:41:14;18.90;54.60
32394;DHT22;18853;45.426;9.206;2024-03-17T07:43:40;19.00;54.20
32394;DHT22;18853;45.426;9.206;2024-03-17T07:46:08;19.00;54.60
32394;DHT22;18853;45.426;9.206;2024-03-17T07:48:36;19.10;53.70
32394;DHT22;18853;45.426;9.206;2024-03-17T07:51:04;19.10;53.90
32394;DHT22;18853;45.426;9.206;2024-03-17T07:53:30;19.20;53.50
32394;DHT22;18853;45.426;9.206;2024-03-17T07:56:08;19.20;53.40
32394;DHT22;18853;45.426;9.206;2024-03-17T07:58:39;19.30;54.00
32394;DHT22;18853;45.426;9.206;2024-03-17T08:01:12;19.30;53.50
32394;DHT22;18853;45.426;9.206;2024-03-17T08:03:39;19.30;55.30
32394;DHT22;18853;45.426;9.206;2024-03-17T08:06:07;19.40;57.20
32394;DHT22;18853;45.426;9.206;2024-03-17T08:08:35;19.80;59.50
32394;DHT22;18853;45.426;9.206;2024-03-17T08:11:01;20.20;60.50
32394;DHT22;18853;45.426;9.206;2024-03-17T08:13:29;20.50;58.30
32394;DHT22;18853;45.426;9.206;2024-03-17T08:16:00;20.70;57.10
32394;DHT22;18853;45.426;9.206;2024-03-17T08:18:26;20.80;55.90
32394;DHT22;18853;45.426;9.206;2024-03-17T08:20:52;20.90;55.80
32394;DHT22;18853;45.426;9.206;2024-03-17T08:23:19;21.10;54.80
32394;DHT22;18853;45.426;9.206;2024-03-17T08:26:00;21.10;54.50
32394;DHT22;18853;45.426;9.206;2024-03-17T08:28:27;21.20;53.60
32394;DHT22;18853;45.426;9.206;2024-03-17T08:31:00;21.30;52.80
32394;DHT22;18853;45.426;9.206;2024-03-17T08:33:27;21.40;52.10
32394;DHT22;18853;45.426;9.206;2024-03-17T08:36:10;21.40;51.30
32394;DHT22;18853;45.426;9.206;2024-03-17T08:38:37;21.50;49.80
32394;DHT22;18853;45.426;9.206;2024-03-17T08:43:30;21.50;49.20
32394;DHT22;18853;45.426;9.206;2024-03-17T08:46:00;21.50;49.40
32394;DHT22;18853;45.426;9.206;2024-03-17T08:48:31;21.50;49.20
32394;DHT22;18853;45.426;9.206;2024-03-17T08:50:58;21.50;49.10
32394;DHT22;18853;45.426;9.206;2024-03-17T08:53:25;21.60;49.00
32394;DHT22;18853;45.426;9.206;2024-03-17T08:55:50;21.60;48.80
32394;DHT22;18853;45.426;9.206;2024-03-17T08:58:17;21.60;48.80
32394;DHT22;18853;45.426;9.206;2024-03-17T09:00:43;21.70;48.60
32394;DHT22;18853;45.426;9.206;2024-03-17T09:03:09;21.70;48.40
32394;DHT22;18853;45.426;9.206;2024-03-17T09:05:39;21.60;48.30
32394;DHT22;18853;45.426;9.206;2024-03-17T09:08:28;21.60;47.90
32394;DHT22;18853;45.426;9.206;2024-03-17T09:10:54;21.60;47.70
32394;DHT22;18853;45.426;9.206;2024-03-17T09:13:22;21.40;48.10
32394;DHT22;18853;45.426;9.206;2024-03-17T09:18:32;21.40;48.50
32394;DHT22;18853;45.426;9.206;2024-03-17T09:21:05;21.40;47.80
32394;DHT22;18853;45.426;9.206;2024-03-17T09:23:33;21.40;48.00
32394;DHT22;18853;45.426;9.206;2024-03-17T09:26:06;21.20;47.90
32394;DHT22;18853;45.426;9.206;2024-03-17T09:28:34;21.20;48.30
32394;DHT22;18853;45.426;9.206;2024-03-17T09:31:00;21.20;48.30
32394;DHT22;18853;45.426;9.206;2024-03-17T09:33:27;21.20;48.00
32394;DHT22;18853;45.426;9.206;2024-03-17T09:36:09;21.20;48.20
32394;DHT22;18853;45.426;9.206;2024-03-17T09:38:39;21.30;48.30
32394;DHT22;18853;45.426;9.206;2024-03-17T09:41:06;21.20;48.00
32394;DHT22;18853;45.426;9.206;2024-03-17T09:43:33;21.30;48.30
32394;DHT22;18853;45.426;9.206;2024-03-17T09:46:02;21.40;47.80
32394;DHT22;18853;45.426;9.206;2024-03-17T09:48:28;21.40;47.90
32394;DHT22;18853;45.426;9.206;2024-03-17T09:50:58;21.50;47.90
32394;DHT22;18853;45.426;9.206;2024-03-17T09:53:29;21.50;47.90
32394;DHT22;18853;45.426;9.206;2024-03-17T09:56:11;21.60;47.90
32394;DHT22;18853;45.426;9.206;2024-03-17T09:58:37;21.70;47.80
32394;DHT22;18853;45.426;9.206;2024-03-17T10:01:03;21.60;47.70
32394;DHT22;18853;45.426;9.206;2024-03-17T10:03:55;21.60;47.90
32394;DHT22;18853;45.426;9.206;2024-03-17T10:06:23;21.70;47.60
32394;DHT22;18853;45.426;9.206;2024-03-17T10:08:53;21.70;47.90
32394;DHT22;18853;45.426;9.206;2024-03-17T10:11:24;21.70;47.70
32394;DHT22;18853;45.426;9.206;2024-03-17T10:14:00;21.70;47.70
32394;DHT22;18853;45.426;9.206;2024-03-17T10:16:27;21.80;47.80
32394;DHT22;18853;45.426;9.206;2024-03-17T10:19:14;21.70;47.60
32394;DHT22;18853;45.426;9.206;2024-03-17T10:21:45;21.80;47.50
32394;DHT22;18853;45.426;9.206;2024-03-17T10:24:23;21.80;47.70
32394;DHT22;18853;45.426;9.206;2024-03-17T10:26:55;21.80;47.50
32394;DHT22;18853;45.426;9.206;2024-03-17T10:32:03;21.70;47.80
32394;DHT22;18853;45.426;9.206;2024-03-17T10:34:30;21.80;47.60
32394;DHT22;18853;45.426;9.206;2024-03-17T10:37:13;21.70;47.70
32394;DHT22;18853;45.426;9.206;2024-03-17T10:39:52;21.80;47.70
32394;DHT22;18853;45.426;9.206;2024-03-17T10:42:27;21.80;47.90
32394;DHT22;18853;45.426;9.206;2024-03-17T10:45:01;21.90;47.80
32394;DHT22;18853;45.426;9.206;2024-03-17T10:47:33;21.90;47.80
32394;DHT22;18853;45.426;9.206;2024-03-17T10:50:00;21.90;47.50
32394;DHT22;18853;45.426;9.206;2024-03-17T10:52:33;21.90;47.40
32394;DHT22;18853;45.426;9.206;2024-03-17T10:55:02;21.90;47.60
32394;DHT22;18853;45.426;9.206;2024-03-17T11:00:06;22.00;47.70
32394;DHT22;18853;45.426;9.206;2024-03-17T11:02:34;22.00;47.50
32394;DHT22;18853;45.426;9.206;2024-03-17T11:05:05;21.90;47.50
32394;DHT22;18853;45.426;9.206;2024-03-17T11:07:32;21.80;47.50
32394;DHT22;18853;45.426;9.206;2024-03-17T11:09:59;21.70;47.50
32394;DHT22;18853;45.426;9.206;2024-03-17T11:12:44;21.50;47.80
32394;DHT22;18853;45.426;9.206;2024-03-17T11:17:50;21.30;48.70
32394;DHT22;18853;45.426;9.206;2024-03-17T11:20:27;21.40;48.70
32394;DHT22;18853;45.426;9.206;2024-03-17T11:22:57;21.40;48.70
32394;DHT22;18853;45.426;9.206;2024-03-17T11:27:53;21.60;49.00
32394;DHT22;18853;45.426;9.206;2024-03-17T11:30:43;21.60;48.90
32394;DHT22;18853;45.426;9.206;2024-03-17T11:38:58;21.70;48.50
32394;DHT22;18853;45.426;9.206;2024-03-17T11:41:37;21.60;48.80
32394;DHT22;18853;45.426;9.206;2024-03-17T11:46:57;21.70;49.10
32394;DHT22;18853;45.426;9.206;2024-03-17T11:49:32;21.70;48.90
32394;DHT22;18853;45.426;9.206;2024-03-17T11:52:00;21.70;49.00
32394;DHT22;18853;45.426;9.206;2024-03-17T11:54:28;21.70;48.80
32394;DHT22;18853;45.426;9.206;2024-03-17T11:56:56;21.70;48.60
32394;DHT22;18853;45.426;9.206;2024-03-17T11:59:22;21.70;48.30
32394;DHT22;18853;45.426;9.206;2024-03-17T12:01:51;21.80;48.30
32394;DHT22;18853;45.426;9.206;2024-03-17T12:04:22;21.80;48.40
32394;DHT22;18853;45.426;9.206;2024-03-17T12:06:51;21.90;48.50
32394;DHT22;18853;45.426;9.206;2024-03-17T12:09:30;21.90;48.50
32394;DHT22;18853;45.426;9.206;2024-03-17T12:12:00;22.00;48.80
32394;DHT22;18853;45.426;9.206;2024-03-17T12:14:26;21.90;48.50
32394;DHT22;18853;45.426;9.206;2024-03-17T12:16:56;21.90;48.80
32394;DHT22;18853;45.426;9.206;2024-03-17T12:19:22;22.00;48.70
32394;DHT22;18853;45.426;9.206;2024-03-17T12:21:53;22.00;48.60
32394;DHT22;18853;45.426;9.206;2024-03-17T12:24:21;22.10;48.80
32394;DHT22;18853;45.426;9.206;2024-03-17T12:26:51;22.10;48.90
32394;DHT22;18853;45.426;9.206;2024-03-17T12:29:25;22.30;48.60
32394;DHT22;18853;45.426;9.206;2024-03-17T12:31:53;22.40;48.20
32394;DHT22;18853;45.426;9.206;2024-03-17T12:34:19;22.40;48.20
32394;DHT22;18853;45.426;9.206;2024-03-17T12:36:46;22.50;48.40
32394;DHT22;18853;45.426;9.206;2024-03-17T12:39:19;22.50;48.90
32394;DHT22;18853;45.426;9.206;2024-03-17T12:41:45;22.60;48.50
32394;DHT22;18853;45.426;9.206;2024-03-17T12:44:25;22.50;48.60
32394;DHT22;18853;45.426;9.206;2024-03-17T12:47:04;22.50;48.90
32394;DHT22;18853;45.426;9.206;2024-03-17T12:49:32;22.60;48.20
32394;DHT22;18853;45.426;9.206;2024-03-17T12:52:00;22.50;48.40
32394;DHT22;18853;45.426;9.206;2024-03-17T12:54:27;22.60;48.50
32394;DHT22;18853;45.426;9.206;2024-03-17T12:57:06;22.70;47.80
32394;DHT22;18853;45.426;9.206;2024-03-17T12:59:52;22.70;48.30
32394;DHT22;18853;45.426;9.206;2024-03-17T13:02:45;22.60;47.90
32394;DHT22;18853;45.426;9.206;2024-03-17T13:05:18;22.70;47.90
32394;DHT22;18853;45.426;9.206;2024-03-17T13:07:46;22.70;48.20
32394;DHT22;18853;45.426;9.206;2024-03-17T13:10:16;22.70;48.00
32394;DHT22;18853;45.426;9.206;2024-03-17T13:12:43;22.70;47.60
32394;DHT22;18853;45.426;9.206;2024-03-17T13:15:14;22.60;47.90
32394;DHT22;18853;45.426;9.206;2024-03-17T13:17:44;22.70;47.70
32394;DHT22;18853;45.426;9.206;2024-03-17T13:20:13;22.60;47.90
32394;DHT22;18853;45.426;9.206;2024-03-17T13:22:41;22.50;47.60
32394;DHT22;18853;45.426;9.206;2024-03-17T13:25:21;22.50;47.80
32394;DHT22;18853;45.426;9.206;2024-03-17T13:27:49;22.50;47.70
32394;DHT22;18853;45.426;9.206;2024-03-17T13:30:16;22.40;48.40
32394;DHT22;18853;45.426;9.206;2024-03-17T13:32:41;22.40;47.90
32394;DHT22;18853;45.426;9.206;2024-03-17T13:35:20;22.40;48.00
32394;DHT22;18853;45.426;9.206;2024-03-17T13:37:47;22.40;48.10
32394;DHT22;18853;45.426;9.206;2024-03-17T13:40:13;22.30;48.40
32394;DHT22;18853;45.426;9.206;2024-03-17T13:42:42;22.40;48.40
32394;DHT22;18853;45.426;9.206;2024-03-17T13:45:11;22.40;48.70
32394;DHT22;18853;45.426;9.206;2024-03-17T13:47:37;22.40;48.70
32394;DHT22;18853;45.426;9.206;2024-03-17T13:50:03;22.40;48.80
32394;DHT22;18853;45.426;9.206;2024-03-17T13:52:32;22.40;48.90
32394;DHT22;18853;45.426;9.206;2024-03-17T13:54:58;22.50;49.00
32394;DHT22;18853;45.426;9.206;2024-03-17T13:57:24;22.40;48.80
32394;DHT22;18853;45.426;9.206;2024-03-17T13:59:50;22.40;48.80
32394;DHT22;18853;45.426;9.206;2024-03-17T14:02:17;22.40;48.50
32394;DHT22;18853;45.426;9.206;2024-03-17T14:04:44;22.40;48.60
32394;DHT22;18853;45.426;9.206;2024-03-17T14:07:09;22.40;48.50
32394;DHT22;18853;45.426;9.206;2024-03-17T14:09:35;22.40;48.70
32394;DHT22;18853;45.426;9.206;2024-03-17T14:12:01;22.50;48.50
32394;DHT22;18853;45.426;9.206;2024-03-17T14:14:27;22.50;48.40
32394;DHT22;18853;45.426;9.206;2024-03-17T14:16:52;22.50;48.50
32394;DHT22;18853;45.426;9.206;2024-03-17T14:19:18;22.60;48.60
32394;DHT22;18853;45.426;9.206;2024-03-17T14:21:44;22.60;48.60
32394;DHT22;18853;45.426;9.206;2024-03-17T14:24:10;22.70;48.80
32394;DHT22;18853;45.426;9.206;2024-03-17T14:26:35;22.80;48.50
32394;DHT22;18853;45.426;9.206;2024-03-17T14:29:02;22.70;47.30
32394;DHT22;18853;45.426;9.206;2024-03-17T14:31:32;22.70;46.90
32394;DHT22;18853;45.426;9.206;2024-03-17T14:33:58;22.70;46.90
32394;DHT22;18853;45.426;9.206;2024-03-17T14:36:24;22.70;47.30
32394;DHT22;18853;45.426;9.206;2024-03-17T14:38:53;22.70;47.30
32394;DHT22;18853;45.426;9.206;2024-03-17T14:41:19;22.90;47.70
32394;DHT22;18853;45.426;9.206;2024-03-17T14:43:45;22.90;47.80
32394;DHT22;18853;45.426;9.206;2024-03-17T14:46:11;22.90;47.70
32394;DHT22;18853;45.426;9.206;2024-03-17T14:48:39;22.90;47.10
32394;DHT22;18853;45.426;9.206;2024-03-17T14:51:05;22.90;46.70
32394;DHT22;18853;45.426;9.206;2024-03-17T14:53:30;22.90;46.40
32394;DHT22;18853;45.426;9.206;2024-03-17T14:55:56;23.00;46.50
32394;DHT22;18853;45.426;9.206;2024-03-17T14:58:22;23.00;46.50
32394;DHT22;18853;45.426;9.206;2024-03-17T15:00:47;23.00;46.60
32394;DHT22;18853;45.426;9.206;2024-03-17T15:03:13;23.10;46.60
32394;DHT22;18853;45.426;9.206;2024-03-17T15:05:39;23.10;46.40
32394;DHT22;18853;45.426;9.206;2024-03-17T15:08:05;23.00;46.20
32394;DHT22;18853;45.426;9.206;2024-03-17T15:10:31;22.90;46.40
32394;DHT22;18853;45.426;9.206;2024-03-17T15:12:56;22.90;46.40
32394;DHT22;18853;45.426;9.206;2024-03-17T15:15:22;22.90;46.40
32394;DHT22;18853;45.426;9.206;2024-03-17T15:17:47;23.00;46.40
32394;DHT22;18853;45.426;9.206;2024-03-17T15:20:16;23.00;46.10
32394;DHT22;18853;45.426;9.206;2024-03-17T15:22:45;23.10;46.00
32394;DHT22;18853;45.426;9.206;2024-03-17T15:25:12;23.20;46.10
32394;DHT22;18853;45.426;9.206;2024-03-17T15:27:40;23.20;46.00
32394;DHT22;18853;45.426;9.206;2024-03-17T15:30:07;23.20;46.10
32394;DHT22;18853;45.426;9.206;2024-03-17T15:32:33;23.30;45.80
32394;DHT22;18853;45.426;9.206;2024-03-17T15:34:58;23.40;45.10
32394;DHT22;18853;45.426;9.206;2024-03-17T15:37:26;23.50;45.40
32394;DHT22;18853;45.426;9.206;2024-03-17T15:39:51;23.70;45.00
32394;DHT22;18853;45.426;9.206;2024-03-17T15:42:17;23.80;44.70
32394;DHT22;18853;45.426;9.206;2024-03-17T15:44:45;23.90;44.70
32394;DHT22;18853;45.426;9.206;2024-03-17T15:47:10;24.00;44.40
32394;DHT22;18853;45.426;9.206;2024-03-17T15:49:36;24.00;43.70
32394;DHT22;18853;45.426;9.206;2024-03-17T15:52:02;24.00;44.00
32394;DHT22;18853;45.426;9.206;2024-03-17T15:54:28;24.00;44.20
32394;DHT22;18853;45.426;9.206;2024-03-17T15:56:55;24.10;44.30
32394;DHT22;18853;45.426;9.206;2024-03-17T15:59:20;24.20;44.40
32394;DHT22;18853;45.426;9.206;2024-03-17T16:01:48;24.20;44.60